createdAt,value
2019-04-10T00:00:35.159Z,16.87
2019-04-10T00:03:08.183Z,16.37
2019-04-10T00:05:38.996Z,16.87
2019-04-10T00:08:08.894Z,16.30
2019-04-10T00:10:38.807Z,16.60
2019-04-10T00:13:08.601Z,17.03
2019-04-10T00:15:38.527Z,16.63
2019-04-10T00:18:09.408Z,16.07
2019-04-10T00:20:39.397Z,15.37
2019-04-10T00:23:09.186Z,16.20
2019-04-10T00:25:39.262Z,16.30
2019-04-10T00:28:09.526Z,16.30
2019-04-10T00:30:39.564Z,16.67
2019-04-10T00:33:10.200Z,16.43
2019-04-10T00:35:40.404Z,16.53
2019-04-10T00:38:10.386Z,16.43
2019-04-10T00:40:40.233Z,17.10
2019-04-10T00:43:10.852Z,19.33
2019-04-10T00:45:41.883Z,20.13
2019-04-10T00:48:12.148Z,18.73
2019-04-10T00:50:44.918Z,16.33
2019-04-10T00:53:17.274Z,16.00
2019-04-10T00:55:48.076Z,17.23
2019-04-10T00:58:20.483Z,18.17
2019-04-10T01:00:51.756Z,16.83
2019-04-10T01:03:40.679Z,16.67
2019-04-10T01:06:11.493Z,17.00
2019-04-10T01:08:44.766Z,16.63
2019-04-10T01:11:15.141Z,17.00
2019-04-10T01:13:47.095Z,18.10
2019-04-10T01:16:19.540Z,17.57
2019-04-10T01:18:49.482Z,17.67
2019-04-10T01:21:20.875Z,17.50
2019-04-10T01:23:55.674Z,17.07
2019-04-10T01:26:28.327Z,17.17
2019-04-10T01:29:01.685Z,17.93
2019-04-10T01:31:33.776Z,19.37
2019-04-10T01:34:05.937Z,18.37
2019-04-10T01:36:35.591Z,17.93
2019-04-10T01:39:10.449Z,16.93
2019-04-10T01:41:41.967Z,17.17
2019-04-10T01:44:11.953Z,17.40
2019-04-10T01:46:45.044Z,17.77
2019-04-10T01:49:15.674Z,18.70
2019-04-10T01:51:47.726Z,19.03
2019-04-10T01:54:20.186Z,18.70
2019-04-10T01:56:50.192Z,19.37
2019-04-10T01:59:23.604Z,20.27
2019-04-10T02:01:58.932Z,20.33
2019-04-10T02:04:30.980Z,19.20
2019-04-10T02:07:00.849Z,20.30
2019-04-10T02:09:31.777Z,20.20
2019-04-10T02:12:02.095Z,20.53
2019-04-10T02:14:33.730Z,21.93
2019-04-10T02:17:04.513Z,21.37
2019-04-10T02:19:36.388Z,20.93
2019-04-10T02:22:06.565Z,20.47
2019-04-10T02:24:37.279Z,21.60
2019-04-10T02:27:09.847Z,20.20
2019-04-10T02:29:42.047Z,20.23
2019-04-10T02:32:14.429Z,20.77
2019-04-10T02:34:46.818Z,20.37
2019-04-10T02:37:17.117Z,21.50
2019-04-10T02:39:52.965Z,21.27
2019-04-10T02:42:20.864Z,19.87
2019-04-10T02:44:52.787Z,20.77
2019-04-10T02:47:23.946Z,21.50
2019-04-10T02:49:54.523Z,20.60
2019-04-10T02:52:26.131Z,20.33
2019-04-10T02:54:57.703Z,21.20
2019-04-10T02:57:27.684Z,20.73
2019-04-10T02:59:57.664Z,20.57
2019-04-10T03:02:28.953Z,20.23
2019-04-10T03:04:59.485Z,20.13
2019-04-10T03:07:29.291Z,20.87
2019-04-10T03:10:08.873Z,18.83
2019-04-10T03:12:32.163Z,19.70
2019-04-10T03:15:03.467Z,19.37
2019-04-10T03:17:34.838Z,19.87
2019-04-10T03:20:07.813Z,20.23
2019-04-10T03:22:38.194Z,20.27
2019-04-10T03:25:08.922Z,20.87
2019-04-10T03:27:38.799Z,20.37
2019-04-10T03:30:12.575Z,20.50
2019-04-10T03:32:48.050Z,20.93
2019-04-10T03:35:28.015Z,20.83
2019-04-10T03:37:57.938Z,20.13
2019-04-10T03:40:27.749Z,20.27
2019-04-10T03:42:59.050Z,19.93
2019-04-10T03:45:30.751Z,20.23
2019-04-10T03:48:02.026Z,19.70
2019-04-10T03:50:34.005Z,20.20
2019-04-10T03:53:03.883Z,20.30
2019-04-10T03:55:34.844Z,19.83
2019-04-10T03:58:04.650Z,18.87
2019-04-10T04:00:36.314Z,19.47
2019-04-10T04:03:06.481Z,19.47
2019-04-10T04:05:37.096Z,21.27
2019-04-10T04:08:07.573Z,21.00
2019-04-10T04:10:37.526Z,20.40
2019-04-10T04:13:07.591Z,21.53
2019-04-10T04:15:37.935Z,38.50
2019-04-10T04:18:08.789Z,36.30
2019-04-10T04:20:41.329Z,22.93
2019-04-10T04:23:11.687Z,20.97
2019-04-10T04:25:42.778Z,21.03
2019-04-10T04:28:12.948Z,21.27
2019-04-10T04:30:42.684Z,20.77
2019-04-10T04:33:13.248Z,21.50
2019-04-10T04:35:43.430Z,21.83
2019-04-10T04:38:14.139Z,22.13
2019-04-10T04:40:44.268Z,21.43
2019-04-10T04:43:14.623Z,22.00
2019-04-10T04:45:44.435Z,22.43
2019-04-10T04:48:14.576Z,23.23
2019-04-10T04:50:45.713Z,22.13
2019-04-10T04:53:16.303Z,22.30
2019-04-10T04:55:47.060Z,22.73
2019-04-10T04:58:20.269Z,22.60
2019-04-10T05:00:50.819Z,22.83
2019-04-10T05:03:20.881Z,24.00
2019-04-10T05:05:50.689Z,24.07
2019-04-10T05:08:21.817Z,23.30
2019-04-10T05:10:54.214Z,23.90
2019-04-10T05:13:24.386Z,24.40
2019-04-10T05:15:55.393Z,23.80
2019-04-10T05:18:25.433Z,24.20
2019-04-10T05:20:55.197Z,24.03
2019-04-10T05:23:24.945Z,23.77
2019-04-10T05:25:54.725Z,24.17
2019-04-10T05:28:24.799Z,22.50
2019-04-10T05:30:55.457Z,24.53
2019-04-10T05:33:26.778Z,24.23
2019-04-10T05:35:57.052Z,23.97
2019-04-10T05:38:27.129Z,27.37
2019-04-10T05:40:57.189Z,34.50
2019-04-10T05:43:28.093Z,32.13
2019-04-10T05:45:57.973Z,24.80
2019-04-10T05:48:29.253Z,25.27
2019-04-10T05:51:03.061Z,24.83
2019-04-10T05:53:30.479Z,24.50
2019-04-10T05:56:01.428Z,43.37
2019-04-10T05:58:33.193Z,29.53
2019-04-10T06:01:05.428Z,25.20
2019-04-10T06:03:40.843Z,25.00
2019-04-10T06:06:10.724Z,24.97
2019-04-10T06:08:41.476Z,24.37
2019-04-10T06:11:15.206Z,24.70
2019-04-10T06:13:48.365Z,25.37
2019-04-10T06:16:19.652Z,25.43
2019-04-10T06:18:49.531Z,24.73
2019-04-10T06:21:20.985Z,24.43
2019-04-10T06:23:52.382Z,25.27
2019-04-10T06:26:25.770Z,25.10
2019-04-10T06:28:58.975Z,26.13
2019-04-10T06:31:28.951Z,26.23
2019-04-10T06:34:00.419Z,25.57
2019-04-10T06:36:31.803Z,24.43
2019-04-10T06:39:02.678Z,25.40
2019-04-10T06:41:38.953Z,26.93
2019-04-10T06:44:09.863Z,26.57
2019-04-10T06:46:40.708Z,26.47
2019-04-10T06:49:12.270Z,26.10
2019-04-10T06:51:45.133Z,26.53
2019-04-10T06:54:17.478Z,25.70
2019-04-10T06:56:48.548Z,25.33
2019-04-10T06:59:18.742Z,26.67
2019-04-10T07:01:53.367Z,26.80
2019-04-10T07:04:24.221Z,29.57
2019-04-10T07:06:59.373Z,27.77
2019-04-10T07:09:27.106Z,26.40
2019-04-10T07:12:00.939Z,28.17
2019-04-10T07:14:29.644Z,28.57
2019-04-10T07:17:05.046Z,27.23
2019-04-10T07:19:34.488Z,27.13
2019-04-10T07:22:08.857Z,27.07
2019-04-10T07:24:41.194Z,27.50
2019-04-10T07:27:11.974Z,28.00
2019-04-10T07:29:44.609Z,27.33
2019-04-10T07:32:16.899Z,27.83
2019-04-10T07:34:48.736Z,28.03
2019-04-10T07:37:23.788Z,26.80
2019-04-10T07:39:52.997Z,27.27
2019-04-10T07:42:31.226Z,28.53
2019-04-10T07:44:58.538Z,27.97
2019-04-10T07:47:31.766Z,28.27
2019-04-10T07:50:02.289Z,26.63
2019-04-10T07:52:34.996Z,27.17
2019-04-10T07:55:06.591Z,27.87
2019-04-10T07:57:44.702Z,28.67
2019-04-10T08:00:16.030Z,28.17
2019-04-10T08:02:49.142Z,27.13
2019-04-10T08:05:23.401Z,27.93
2019-04-10T08:07:55.968Z,29.70
2019-04-10T08:10:26.377Z,30.73
2019-04-10T08:12:56.532Z,30.10
2019-04-10T08:15:27.364Z,29.13
2019-04-10T08:17:58.196Z,29.70
2019-04-10T08:20:30.565Z,31.00
2019-04-10T08:23:01.497Z,31.73
2019-04-10T08:25:33.264Z,30.90
2019-04-10T08:28:03.238Z,31.27
2019-04-10T08:30:34.112Z,32.03
2019-04-10T08:33:06.230Z,31.83
2019-04-10T08:35:37.818Z,31.53
2019-04-10T08:38:07.813Z,30.80
2019-04-10T08:40:38.656Z,30.83
2019-04-10T08:43:11.828Z,29.77
2019-04-10T08:45:47.183Z,30.43
2019-04-10T08:48:15.728Z,30.93
2019-04-10T08:50:46.251Z,30.40
2019-04-10T08:53:16.037Z,30.73
2019-04-10T08:55:49.010Z,28.77
2019-04-10T08:58:18.885Z,29.47
2019-04-10T09:00:51.472Z,28.80
2019-04-10T09:03:24.619Z,29.70
2019-04-10T09:05:56.467Z,29.60
2019-04-10T09:08:29.396Z,28.17
2019-04-10T09:11:00.964Z,28.10
2019-04-10T09:13:30.854Z,28.97
2019-04-10T09:16:03.107Z,28.73
2019-04-10T09:18:35.274Z,29.57
2019-04-10T09:21:05.561Z,29.23
2019-04-10T09:23:45.557Z,29.93
2019-04-10T09:26:09.539Z,29.67
2019-04-10T09:28:42.435Z,29.80
2019-04-10T09:31:12.234Z,30.10
2019-04-10T09:33:43.483Z,29.17
2019-04-10T09:36:13.558Z,30.10
2019-04-10T09:38:44.152Z,29.90
2019-04-10T09:41:17.615Z,31.47
2019-04-10T09:43:50.812Z,30.83
2019-04-10T09:46:23.037Z,30.67
2019-04-10T09:48:53.436Z,30.67
2019-04-10T09:51:25.631Z,30.47
2019-04-10T09:53:55.563Z,31.30
2019-04-10T09:56:27.625Z,29.40
2019-04-10T09:58:58.745Z,30.23
2019-04-10T10:01:33.624Z,28.80
2019-04-10T10:04:04.738Z,29.63
2019-04-10T10:06:36.707Z,29.97
2019-04-10T10:09:08.412Z,30.50
2019-04-10T10:11:39.887Z,32.10
2019-04-10T10:14:10.377Z,30.83
2019-04-10T10:16:42.134Z,29.83
2019-04-10T10:19:14.092Z,28.83
2019-04-10T10:21:48.319Z,28.83
2019-04-10T10:24:22.541Z,29.97
2019-04-10T10:26:54.031Z,30.83
2019-04-10T10:29:24.526Z,29.80
2019-04-10T10:31:58.384Z,29.47
2019-04-10T10:34:30.285Z,29.23
2019-04-10T10:37:03.839Z,29.03
2019-04-10T10:39:34.919Z,28.57
2019-04-10T10:42:05.499Z,29.73
2019-04-10T10:44:36.332Z,29.70
2019-04-10T10:47:08.237Z,29.87
2019-04-10T10:49:40.163Z,29.80
2019-04-10T10:52:11.144Z,31.10
2019-04-10T10:54:45.937Z,30.30
2019-04-10T10:57:15.759Z,29.70
2019-04-10T10:59:49.571Z,29.20
2019-04-10T11:02:21.893Z,29.73
2019-04-10T11:04:51.864Z,28.90
2019-04-10T11:07:24.635Z,29.13
2019-04-10T11:09:57.165Z,27.80
2019-04-10T11:12:30.495Z,28.07
2019-04-10T11:15:03.665Z,28.77
2019-04-10T11:17:35.712Z,29.03
2019-04-10T11:20:10.196Z,27.13
2019-04-10T11:22:44.930Z,29.47
2019-04-10T11:25:22.058Z,29.03
2019-04-10T11:27:56.471Z,30.27
2019-04-10T11:30:28.767Z,30.33
2019-04-10T11:33:00.059Z,30.33
2019-04-10T11:35:31.663Z,30.20
2019-04-10T11:38:03.438Z,30.87
2019-04-10T11:40:36.534Z,30.57
2019-04-10T11:43:10.085Z,29.97
2019-04-10T11:45:45.495Z,32.10
2019-04-10T11:48:16.342Z,30.40
2019-04-10T11:50:46.744Z,31.90
2019-04-10T11:53:19.098Z,31.00
2019-04-10T11:55:53.666Z,30.00
2019-04-10T11:58:25.214Z,31.37
2019-04-10T12:00:58.062Z,30.87
2019-04-10T12:03:28.293Z,32.73
2019-04-10T12:06:04.351Z,30.70
2019-04-10T12:09:04.349Z,31.37
2019-04-10T12:11:13.669Z,34.27
2019-04-10T12:13:42.740Z,32.43
2019-04-10T12:16:12.851Z,31.00
2019-04-10T12:18:43.648Z,30.30
2019-04-10T12:21:13.876Z,29.30
2019-04-10T12:23:45.250Z,28.10
2019-04-10T12:26:16.049Z,27.40
2019-04-10T12:28:46.480Z,25.67
2019-04-10T12:31:17.630Z,26.47
2019-04-10T12:33:48.385Z,24.13
2019-04-10T12:36:18.389Z,25.20
2019-04-10T12:38:49.840Z,25.70
2019-04-10T12:41:23.454Z,25.23
2019-04-10T12:43:53.685Z,25.40
2019-04-10T12:46:24.443Z,24.80
2019-04-10T12:48:55.133Z,26.40
2019-04-10T12:51:27.761Z,26.17
2019-04-10T12:54:00.988Z,26.53
2019-04-10T12:56:32.469Z,26.17
2019-04-10T12:59:05.465Z,28.17
2019-04-10T13:01:36.939Z,27.97
2019-04-10T13:04:09.035Z,29.37
2019-04-10T13:06:42.236Z,28.67
2019-04-10T13:09:13.419Z,28.60
2019-04-10T13:11:46.928Z,30.50
2019-04-10T13:14:17.547Z,30.80
2019-04-10T13:16:47.895Z,32.27
2019-04-10T13:19:18.789Z,33.63
2019-04-10T13:21:51.654Z,33.87
2019-04-10T13:24:23.763Z,33.20
2019-04-10T13:26:56.516Z,33.60
2019-04-10T13:29:32.161Z,33.53
2019-04-10T13:32:08.160Z,34.27
2019-04-10T13:34:43.617Z,34.83
2019-04-10T13:37:16.148Z,35.23
2019-04-10T13:39:46.819Z,34.93
2019-04-10T13:42:17.257Z,35.60
2019-04-10T13:44:48.676Z,35.63
2019-04-10T13:47:21.781Z,37.03
2019-04-10T13:49:54.779Z,37.10
2019-04-10T13:52:25.871Z,34.27
2019-04-10T13:54:56.426Z,35.57
2019-04-10T13:57:28.686Z,36.20
2019-04-10T13:59:59.501Z,34.93
2019-04-10T14:02:32.244Z,37.03
2019-04-10T14:05:05.320Z,36.00
2019-04-10T14:07:37.024Z,36.83
2019-04-10T14:10:08.349Z,36.00
2019-04-10T14:12:38.956Z,36.57
2019-04-10T14:15:09.884Z,34.50
2019-04-10T14:17:41.750Z,34.23
2019-04-10T14:20:13.143Z,35.90
2019-04-10T14:23:02.061Z,34.30
2019-04-10T14:25:42.853Z,35.93
2019-04-10T14:28:13.539Z,36.07
2019-04-10T14:30:45.381Z,37.17
2019-04-10T14:33:16.342Z,35.27
2019-04-10T14:35:45.954Z,34.07
2019-04-10T14:38:19.030Z,35.07
2019-04-10T14:40:50.129Z,37.43
2019-04-10T14:43:21.606Z,33.97
2019-04-10T14:45:54.038Z,36.73
2019-04-10T14:48:26.164Z,34.73
2019-04-10T14:50:59.834Z,34.33
2019-04-10T14:53:33.249Z,36.33
2019-04-10T14:56:04.048Z,34.80
2019-04-10T14:58:36.877Z,32.70
2019-04-10T15:01:09.885Z,34.23
2019-04-10T15:03:40.905Z,34.07
2019-04-10T15:06:13.189Z,33.63
2019-04-10T15:08:45.992Z,34.97
2019-04-10T15:11:16.303Z,35.23
2019-04-10T15:13:47.045Z,33.20
2019-04-10T15:16:20.919Z,32.43
2019-04-10T15:18:52.057Z,34.63
2019-04-10T15:21:22.859Z,33.17
2019-04-10T15:23:55.231Z,33.37
2019-04-10T15:26:26.074Z,33.77
2019-04-10T15:28:56.220Z,34.73
2019-04-10T15:31:28.805Z,39.73
2019-04-10T15:34:01.622Z,34.47
2019-04-10T15:36:34.039Z,36.80
2019-04-10T15:39:06.567Z,33.53
2019-04-10T15:41:36.561Z,35.20
2019-04-10T15:44:07.942Z,31.57
2019-04-10T15:46:39.182Z,32.33
2019-04-10T15:49:13.219Z,34.23
2019-04-10T15:51:43.603Z,34.77
2019-04-10T15:54:15.939Z,32.63
2019-04-10T15:56:48.138Z,47.83
2019-04-10T15:59:20.183Z,38.73
2019-04-10T16:01:52.372Z,35.47
2019-04-10T16:04:25.523Z,33.40
2019-04-10T16:06:56.294Z,33.57
2019-04-10T16:09:27.735Z,31.07
2019-04-10T16:12:16.478Z,80.27
2019-04-10T16:14:48.628Z,70.80
2019-04-10T16:17:29.612Z,46.40
2019-04-10T16:20:18.231Z,29.00
2019-04-10T16:22:56.742Z,26.23
2019-04-10T16:25:30.150Z,24.57
2019-04-10T16:28:02.230Z,23.17
2019-04-10T16:30:33.002Z,22.37
2019-04-10T16:33:04.954Z,24.10
2019-04-10T16:35:37.295Z,21.93
2019-04-10T16:38:09.686Z,21.67
2019-04-10T16:40:40.456Z,20.77
2019-04-10T16:43:11.668Z,21.03
2019-04-10T16:45:43.607Z,22.00
2019-04-10T16:48:14.796Z,20.27
2019-04-10T16:50:46.026Z,20.33
2019-04-10T16:53:18.115Z,32.10
2019-04-10T16:55:49.246Z,32.63
2019-04-10T16:58:22.040Z,19.33
2019-04-10T17:00:51.799Z,19.87
2019-04-10T17:03:21.849Z,19.63
2019-04-10T17:05:51.830Z,20.83
2019-04-10T17:08:23.761Z,21.27
2019-04-10T17:10:54.030Z,19.23
2019-04-10T17:13:24.625Z,18.33
2019-04-10T17:15:55.777Z,15.50
2019-04-10T17:18:27.398Z,18.53
2019-04-10T17:20:58.277Z,18.87
2019-04-10T17:23:30.824Z,18.50
2019-04-10T17:26:02.452Z,18.90
2019-04-10T17:28:34.452Z,17.07
2019-04-10T17:31:09.150Z,16.90
2019-04-10T17:33:39.444Z,16.23
2019-04-10T17:36:10.020Z,20.87
2019-04-10T17:38:40.180Z,21.37
2019-04-10T17:41:11.145Z,16.27
2019-04-10T17:43:43.508Z,15.37
2019-04-10T17:46:15.268Z,23.43
2019-04-10T17:48:46.392Z,45.90
2019-04-10T17:51:17.783Z,17.63
2019-04-10T17:53:49.418Z,16.53
2019-04-10T17:56:20.401Z,15.70
2019-04-10T17:58:51.970Z,14.83
2019-04-10T18:01:23.249Z,16.10
2019-04-10T18:03:58.349Z,17.10
2019-04-10T18:06:28.995Z,15.83
2019-04-10T18:08:59.277Z,15.33
2019-04-10T18:11:30.264Z,15.67
2019-04-10T18:14:00.897Z,15.33
2019-04-10T18:16:33.938Z,15.23
2019-04-10T18:19:04.417Z,15.30
2019-04-10T18:21:37.075Z,15.30
2019-04-10T18:24:08.187Z,15.27
2019-04-10T18:26:40.267Z,15.20
2019-04-10T18:29:11.367Z,15.10
2019-04-10T18:31:43.100Z,16.03
2019-04-10T18:34:15.534Z,22.90
2019-04-10T18:36:48.525Z,14.37
2019-04-10T18:39:21.923Z,14.63
2019-04-10T18:41:52.029Z,15.53
2019-04-10T18:44:22.748Z,15.23
2019-04-10T18:46:54.350Z,16.40
2019-04-10T18:49:27.404Z,15.87
2019-04-10T18:51:58.421Z,15.50
2019-04-10T18:54:31.893Z,14.53
2019-04-10T18:57:03.390Z,15.87
2019-04-10T18:59:35.002Z,15.57
2019-04-10T19:02:28.780Z,16.67
2019-04-10T19:05:03.379Z,60.20
2019-04-10T19:07:34.331Z,123.53
2019-04-10T19:10:06.754Z,17.70
2019-04-10T19:12:37.265Z,17.03
2019-04-10T19:15:08.679Z,16.10
2019-04-10T19:17:40.554Z,16.80
2019-04-10T19:20:11.183Z,20.70
2019-04-10T19:22:42.447Z,75.50
2019-04-10T19:25:16.484Z,63.97
2019-04-10T19:27:46.712Z,62.17
2019-04-10T19:30:33.623Z,21.43
2019-04-10T19:33:03.846Z,15.40
2019-04-10T19:35:33.725Z,16.17
2019-04-10T19:38:05.585Z,49.67
2019-04-10T19:40:36.900Z,79.30
2019-04-10T19:43:08.542Z,41.70
2019-04-10T19:45:39.765Z,27.17
2019-04-10T19:48:12.898Z,17.30
2019-04-10T19:50:43.792Z,15.70
2019-04-10T19:53:15.100Z,14.37
2019-04-10T19:55:46.774Z,15.67
2019-04-10T19:58:17.685Z,14.43
2019-04-10T20:00:49.017Z,14.43
2019-04-10T20:03:23.660Z,95.53
2019-04-10T20:05:55.556Z,163.47
2019-04-10T20:08:25.882Z,75.67
2019-04-10T20:10:58.175Z,45.30
2019-04-10T20:13:28.412Z,55.40
2019-04-10T20:16:00.747Z,38.17
2019-04-10T20:18:30.793Z,34.03
2019-04-10T20:21:03.715Z,45.87
2019-04-10T20:23:34.153Z,40.33
2019-04-10T20:26:07.140Z,38.60
2019-04-10T20:28:38.762Z,43.20
2019-04-10T20:31:10.669Z,16.77
2019-04-10T20:33:41.014Z,16.60
2019-04-10T20:36:12.953Z,15.73
2019-04-10T20:38:43.065Z,16.37
2019-04-10T20:41:16.569Z,16.57
2019-04-10T20:43:47.047Z,16.43
2019-04-10T20:46:18.091Z,17.07
2019-04-10T20:48:49.486Z,17.70
2019-04-10T20:51:20.736Z,18.20
2019-04-10T20:53:56.046Z,61.47
2019-04-10T20:56:26.433Z,40.33
2019-04-10T20:58:59.337Z,71.97
2019-04-10T21:01:31.000Z,35.93
2019-04-10T21:04:03.049Z,19.57
2019-04-10T21:06:36.416Z,18.07
2019-04-10T21:09:09.876Z,18.93
2019-04-10T21:11:41.912Z,18.47
2019-04-10T21:14:13.715Z,17.80
2019-04-10T21:16:47.674Z,19.50
2019-04-10T21:19:19.062Z,20.80
2019-04-10T21:21:49.574Z,22.20
2019-04-10T21:24:21.470Z,21.57
2019-04-10T21:26:52.536Z,21.60
2019-04-10T21:29:34.335Z,22.93
2019-04-10T21:32:08.032Z,25.53
2019-04-10T21:34:40.592Z,24.83
2019-04-10T21:37:11.326Z,24.43
2019-04-10T21:39:41.560Z,25.20
2019-04-10T21:42:19.518Z,23.37
2019-04-10T21:44:43.100Z,23.47
2019-04-10T21:47:13.168Z,24.33
2019-04-10T21:49:44.158Z,23.97
2019-04-10T21:52:14.350Z,22.90
2019-04-10T21:54:49.529Z,23.43
2019-04-10T21:57:16.066Z,23.80
2019-04-10T21:59:45.876Z,24.23
2019-04-10T22:02:15.739Z,24.50
2019-04-10T22:04:45.824Z,24.57
2019-04-10T22:07:34.346Z,24.20
2019-04-10T22:10:07.743Z,25.30
2019-04-10T22:12:43.809Z,23.87
2019-04-10T22:15:10.795Z,23.50
2019-04-10T22:17:40.849Z,24.50
2019-04-10T22:20:11.737Z,23.73
2019-04-10T22:22:41.629Z,23.13
2019-04-10T22:25:11.646Z,22.60
2019-04-10T22:27:43.546Z,24.47
2019-04-10T22:30:15.237Z,24.17
2019-04-10T22:32:46.942Z,22.90
2019-04-10T22:35:19.448Z,23.13
2019-04-10T22:37:57.751Z,24.03
2019-04-10T22:40:33.946Z,21.93
2019-04-10T22:43:09.601Z,21.17
2019-04-10T22:45:41.906Z,21.33
2019-04-10T22:48:12.423Z,22.40
2019-04-10T22:50:42.935Z,24.50
2019-04-10T22:53:13.056Z,18.70
2019-04-10T22:55:44.476Z,16.27
2019-04-10T22:58:17.000Z,16.07
2019-04-10T23:00:48.483Z,15.70
2019-04-10T23:03:20.725Z,15.43
2019-04-10T23:05:51.211Z,15.90
2019-04-10T23:08:20.990Z,15.83
2019-04-10T23:10:53.527Z,16.97
2019-04-10T23:13:23.955Z,17.47
2019-04-10T23:15:54.322Z,17.00
2019-04-10T23:18:24.084Z,18.33
2019-04-10T23:20:54.268Z,21.60
2019-04-10T23:23:27.339Z,23.37
2019-04-10T23:26:01.012Z,21.40
2019-04-10T23:28:33.749Z,22.33
2019-04-10T23:31:05.984Z,22.97
2019-04-10T23:33:36.472Z,24.67
2019-04-10T23:36:07.474Z,25.80
2019-04-10T23:38:37.765Z,26.43
2019-04-10T23:41:07.505Z,26.40
2019-04-10T23:43:41.927Z,27.47
2019-04-10T23:46:12.760Z,27.03
2019-04-10T23:48:46.702Z,27.80
2019-04-10T23:51:18.991Z,29.70
2019-04-10T23:53:51.016Z,29.57
2019-04-10T23:56:21.832Z,31.70
2019-04-10T23:58:54.369Z,30.57
